sensor_id;sensor_type;location;lat;lon;timestamp;P1;durP1;ratioP1;P2;durP2;ratioP2
20104;SDS011;10212;42.714;23.310;2024-03-08T00:04:32;1.58;;;1.38;;
20104;SDS011;10212;42.714;23.310;2024-03-08T00:14:32;2.17;;;1.30;;
20104;SDS011;10212;42.714;23.310;2024-03-08T00:24:33;4.72;;;2.72;;
20104;SDS011;10212;42.714;23.310;2024-03-08T00:34:37;3.80;;;3.40;;
20104;SDS011;10212;42.714;23.310;2024-03-08T00:44:37;3.03;;;2.40;;
20104;SDS011;10212;42.714;23.310;2024-03-08T00:54:37;2.20;;;1.95;;
20104;SDS011;10212;42.714;23.310;2024-03-08T01:04:38;4.05;;;3.65;;
20104;SDS011;10212;42.714;23.310;2024-03-08T01:14:38;4.03;;;3.08;;
20104;SDS011;10212;42.714;23.310;2024-03-08T01:24:39;3.38;;;2.45;;
20104;SDS011;10212;42.714;23.310;2024-03-08T01:34:39;1.88;;;1.67;;
20104;SDS011;10212;42.714;23.310;2024-03-08T01:44:40;3.63;;;1.60;;
20104;SDS011;10212;42.714;23.310;2024-03-08T01:54:40;3.95;;;1.60;;
20104;SDS011;10212;42.714;23.310;2024-03-08T02:04:41;1.60;;;1.50;;
20104;SDS011;10212;42.714;23.310;2024-03-08T02:14:41;2.40;;;1.50;;
20104;SDS011;10212;42.714;23.310;2024-03-08T02:24:43;2.75;;;1.13;;
20104;SDS011;10212;42.714;23.310;2024-03-08T02:34:44;1.13;;;0.85;;
20104;SDS011;10212;42.714;23.310;2024-03-08T02:44:44;0.90;;;0.90;;
20104;SDS011;10212;42.714;23.310;2024-03-08T02:54:45;5.13;;;0.98;;
20104;SDS011;10212;42.714;23.310;2024-03-08T03:04:46;1.05;;;0.60;;
20104;SDS011;10212;42.714;23.310;2024-03-08T03:14:47;0.90;;;0.85;;
20104;SDS011;10212;42.714;23.310;2024-03-08T03:24:47;1.13;;;0.80;;
20104;SDS011;10212;42.714;23.310;2024-03-08T03:34:49;2.25;;;1.10;;
20104;SDS011;10212;42.714;23.310;2024-03-08T03:44:52;0.98;;;0.88;;
20104;SDS011;10212;42.714;23.310;2024-03-08T03:54:53;1.38;;;0.90;;
20104;SDS011;10212;42.714;23.310;2024-03-08T04:04:53;1.98;;;1.35;;
20104;SDS011;10212;42.714;23.310;2024-03-08T04:14:54;1.30;;;1.15;;
20104;SDS011;10212;42.714;23.310;2024-03-08T04:24:55;3.67;;;1.55;;
20104;SDS011;10212;42.714;23.310;2024-03-08T04:34:56;1.70;;;1.60;;
20104;SDS011;10212;42.714;23.310;2024-03-08T04:44:58;7.53;;;4.45;;
20104;SDS011;10212;42.714;23.310;2024-03-08T04:54:58;3.53;;;2.45;;
20104;SDS011;10212;42.714;23.310;2024-03-08T05:04:59;3.85;;;2.60;;
20104;SDS011;10212;42.714;23.310;2024-03-08T05:15:00;7.35;;;4.78;;
20104;SDS011;10212;42.714;23.310;2024-03-08T05:25:01;7.03;;;4.55;;
20104;SDS011;10212;42.714;23.310;2024-03-08T05:35:01;9.02;;;5.40;;
20104;SDS011;10212;42.714;23.310;2024-03-08T05:45:07;9.00;;;5.38;;
20104;SDS011;10212;42.714;23.310;2024-03-08T05:55:08;8.63;;;5.13;;
20104;SDS011;10212;42.714;23.310;2024-03-08T06:05:10;9.00;;;4.88;;
20104;SDS011;10212;42.714;23.310;2024-03-08T06:15:11;9.35;;;5.63;;
20104;SDS011;10212;42.714;23.310;2024-03-08T06:25:14;7.93;;;4.63;;
20104;SDS011;10212;42.714;23.310;2024-03-08T06:35:15;11.48;;;5.25;;
20104;SDS011;10212;42.714;23.310;2024-03-08T06:45:16;10.02;;;5.10;;
20104;SDS011;10212;42.714;23.310;2024-03-08T06:55:20;9.50;;;5.55;;
20104;SDS011;10212;42.714;23.310;2024-03-08T07:05:21;7.88;;;5.03;;
20104;SDS011;10212;42.714;23.310;2024-03-08T07:15:21;6.85;;;4.75;;
20104;SDS011;10212;42.714;23.310;2024-03-08T07:25:23;32.60;;;8.23;;
20104;SDS011;10212;42.714;23.310;2024-03-08T07:35:29;10.93;;;6.03;;
20104;SDS011;10212;42.714;23.310;2024-03-08T07:45:31;11.07;;;6.72;;
20104;SDS011;10212;42.714;23.310;2024-03-08T07:55:31;10.68;;;6.60;;
20104;SDS011;10212;42.714;23.310;2024-03-08T08:05:31;8.38;;;5.15;;
20104;SDS011;10212;42.714;23.310;2024-03-08T08:15:35;8.70;;;4.75;;
20104;SDS011;10212;42.714;23.310;2024-03-08T08:25:35;5.05;;;3.20;;
20104;SDS011;10212;42.714;23.310;2024-03-08T08:35:36;4.28;;;2.80;;
20104;SDS011;10212;42.714;23.310;2024-03-08T08:45:37;5.13;;;3.22;;
20104;SDS011;10212;42.714;23.310;2024-03-08T08:55:39;5.40;;;3.03;;
20104;SDS011;10212;42.714;23.310;2024-03-08T09:05:40;3.85;;;2.58;;
20104;SDS011;10212;42.714;23.310;2024-03-08T09:15:42;4.00;;;2.60;;
20104;SDS011;10212;42.714;23.310;2024-03-08T09:25:44;4.05;;;2.65;;
20104;SDS011;10212;42.714;23.310;2024-03-08T09:35:44;3.95;;;2.45;;
20104;SDS011;10212;42.714;23.310;2024-03-08T09:45:47;2.50;;;2.20;;
20104;SDS011;10212;42.714;23.310;2024-03-08T09:55:49;2.47;;;2.28;;
20104;SDS011;10212;42.714;23.310;2024-03-08T10:05:50;2.60;;;2.05;;
20104;SDS011;10212;42.714;23.310;2024-03-08T10:15:50;2.22;;;1.70;;
20104;SDS011;10212;42.714;23.310;2024-03-08T10:25:51;3.20;;;1.73;;
20104;SDS011;10212;42.714;23.310;2024-03-08T10:35:51;1.40;;;1.27;;
20104;SDS011;10212;42.714;23.310;2024-03-08T10:45:56;1.98;;;1.73;;
20104;SDS011;10212;42.714;23.310;2024-03-08T10:56:10;3.30;;;1.40;;
20104;SDS011;10212;42.714;23.310;2024-03-08T11:06:14;1.77;;;1.60;;
20104;SDS011;10212;42.714;23.310;2024-03-08T11:26:26;1.55;;;1.30;;
20104;SDS011;10212;42.714;23.310;2024-03-08T11:36:27;1.20;;;1.10;;
20104;SDS011;10212;42.714;23.310;2024-03-08T11:46:27;3.83;;;1.20;;
20104;SDS011;10212;42.714;23.310;2024-03-08T11:56:28;2.45;;;1.85;;
20104;SDS011;10212;42.714;23.310;2024-03-08T12:06:36;1.33;;;1.20;;
20104;SDS011;10212;42.714;23.310;2024-03-08T12:16:39;1.75;;;1.65;;
20104;SDS011;10212;42.714;23.310;2024-03-08T12:26:39;1.25;;;1.15;;
20104;SDS011;10212;42.714;23.310;2024-03-08T12:36:49;1.55;;;1.40;;
20104;SDS011;10212;42.714;23.310;2024-03-08T12:46:53;1.80;;;1.40;;
20104;SDS011;10212;42.714;23.310;2024-03-08T12:56:53;2.05;;;1.60;;
20104;SDS011;10212;42.714;23.310;2024-03-08T13:06:54;3.25;;;1.52;;
20104;SDS011;10212;42.714;23.310;2024-03-08T13:16:55;1.77;;;1.67;;
20104;SDS011;10212;42.714;23.310;2024-03-08T13:26:57;5.20;;;1.73;;
20104;SDS011;10212;42.714;23.310;2024-03-08T13:36:59;1.85;;;1.45;;
20104;SDS011;10212;42.714;23.310;2024-03-08T13:47:00;1.83;;;1.58;;
20104;SDS011;10212;42.714;23.310;2024-03-08T13:57:04;2.10;;;1.40;;
20104;SDS011;10212;42.714;23.310;2024-03-08T14:07:04;1.95;;;1.75;;
20104;SDS011;10212;42.714;23.310;2024-03-08T14:17:08;2.75;;;1.83;;
20104;SDS011;10212;42.714;23.310;2024-03-08T14:27:11;4.35;;;2.05;;
20104;SDS011;10212;42.714;23.310;2024-03-08T14:37:12;2.63;;;1.90;;
20104;SDS011;10212;42.714;23.310;2024-03-08T14:47:13;2.08;;;1.88;;
20104;SDS011;10212;42.714;23.310;2024-03-08T14:57:14;3.92;;;2.70;;
20104;SDS011;10212;42.714;23.310;2024-03-08T15:07:15;7.65;;;3.95;;
20104;SDS011;10212;42.714;23.310;2024-03-08T15:17:15;5.50;;;3.22;;
20104;SDS011;10212;42.714;23.310;2024-03-08T15:27:20;5.75;;;3.35;;
20104;SDS011;10212;42.714;23.310;2024-03-08T15:37:21;4.53;;;3.30;;
20104;SDS011;10212;42.714;23.310;2024-03-08T15:47:21;7.78;;;4.07;;
20104;SDS011;10212;42.714;23.310;2024-03-08T15:57:22;5.57;;;4.00;;
20104;SDS011;10212;42.714;23.310;2024-03-08T16:07:22;7.50;;;3.97;;
20104;SDS011;10212;42.714;23.310;2024-03-08T16:17:23;7.45;;;4.03;;
20104;SDS011;10212;42.714;23.310;2024-03-08T16:27:23;5.40;;;4.10;;
20104;SDS011;10212;42.714;23.310;2024-03-08T16:37:24;6.40;;;4.35;;
20104;SDS011;10212;42.714;23.310;2024-03-08T16:47:28;5.00;;;3.30;;
20104;SDS011;10212;42.714;23.310;2024-03-08T16:57:28;6.80;;;4.50;;
20104;SDS011;10212;42.714;23.310;2024-03-08T17:07:32;8.23;;;4.57;;
20104;SDS011;10212;42.714;23.310;2024-03-08T17:17:33;6.50;;;4.32;;
20104;SDS011;10212;42.714;23.310;2024-03-08T17:27:33;9.10;;;4.45;;
20104;SDS011;10212;42.714;23.310;2024-03-08T17:37:36;6.65;;;3.80;;
20104;SDS011;10212;42.714;23.310;2024-03-08T17:47:37;10.82;;;4.95;;
20104;SDS011;10212;42.714;23.310;2024-03-08T17:57:38;9.18;;;4.45;;
20104;SDS011;10212;42.714;23.310;2024-03-08T18:07:40;13.25;;;7.53;;
20104;SDS011;10212;42.714;23.310;2024-03-08T18:17:41;16.33;;;8.00;;
20104;SDS011;10212;42.714;23.310;2024-03-08T18:27:41;14.53;;;7.60;;
20104;SDS011;10212;42.714;23.310;2024-03-08T18:37:42;18.10;;;9.07;;
20104;SDS011;10212;42.714;23.310;2024-03-08T18:47:46;14.02;;;7.35;;
20104;SDS011;10212;42.714;23.310;2024-03-08T18:57:48;13.50;;;8.00;;
20104;SDS011;10212;42.714;23.310;2024-03-08T19:07:50;16.00;;;8.00;;
20104;SDS011;10212;42.714;23.310;2024-03-08T19:17:52;17.55;;;9.75;;
20104;SDS011;10212;42.714;23.310;2024-03-08T19:27:57;17.80;;;10.05;;
20104;SDS011;10212;42.714;23.310;2024-03-08T19:38:01;19.42;;;10.75;;
20104;SDS011;10212;42.714;23.310;2024-03-08T19:48:02;24.75;;;12.20;;
20104;SDS011;10212;42.714;23.310;2024-03-08T19:58:09;17.58;;;9.75;;
20104;SDS011;10212;42.714;23.310;2024-03-08T20:08:10;19.70;;;10.95;;
20104;SDS011;10212;42.714;23.310;2024-03-08T20:18:14;21.40;;;12.85;;
20104;SDS011;10212;42.714;23.310;2024-03-08T20:28:15;12.65;;;6.57;;
20104;SDS011;10212;42.714;23.310;2024-03-08T20:38:18;12.63;;;6.70;;
20104;SDS011;10212;42.714;23.310;2024-03-08T20:48:22;11.57;;;6.53;;
20104;SDS011;10212;42.714;23.310;2024-03-08T20:58:23;12.50;;;7.50;;
20104;SDS011;10212;42.714;23.310;2024-03-08T21:08:25;11.35;;;7.10;;
20104;SDS011;10212;42.714;23.310;2024-03-08T21:18:26;11.00;;;6.13;;
20104;SDS011;10212;42.714;23.310;2024-03-08T21:28:28;12.30;;;6.45;;
20104;SDS011;10212;42.714;23.310;2024-03-08T21:38:29;16.97;;;7.20;;
20104;SDS011;10212;42.714;23.310;2024-03-08T21:48:29;17.08;;;7.25;;
20104;SDS011;10212;42.714;23.310;2024-03-08T21:58:30;14.20;;;6.97;;
20104;SDS011;10212;42.714;23.310;2024-03-08T22:08:32;11.52;;;6.85;;
20104;SDS011;10212;42.714;23.310;2024-03-08T22:18:33;11.98;;;6.80;;
20104;SDS011;10212;42.714;23.310;2024-03-08T22:28:36;14.13;;;7.30;;
20104;SDS011;10212;42.714;23.310;2024-03-08T22:38:36;16.55;;;8.75;;
20104;SDS011;10212;42.714;23.310;2024-03-08T22:48:37;18.03;;;9.30;;
20104;SDS011;10212;42.714;23.310;2024-03-08T22:58:39;19.92;;;9.60;;
20104;SDS011;10212;42.714;23.310;2024-03-08T23:08:41;19.58;;;9.93;;
20104;SDS011;10212;42.714;23.310;2024-03-08T23:18:45;19.42;;;9.57;;
20104;SDS011;10212;42.714;23.310;2024-03-08T23:28:45;16.20;;;8.93;;
20104;SDS011;10212;42.714;23.310;2024-03-08T23:38:46;18.25;;;9.30;;
20104;SDS011;10212;42.714;23.310;2024-03-08T23:48:49;17.20;;;9.10;;
20104;SDS011;10212;42.714;23.310;2024-03-08T23:58:50;18.73;;;9.65;;
